createdAt,value
2022-10-21T00:00:51.458Z,101713.44
2022-10-21T00:03:19.614Z,101707.53
2022-10-21T00:05:47.615Z,101707.09
2022-10-21T00:08:15.786Z,101702.66
2022-10-21T00:10:43.155Z,101711.13
2022-10-21T00:13:10.554Z,101719.97
2022-10-21T00:15:37.725Z,101717.31
2022-10-21T00:18:04.894Z,101723.56
2022-10-21T00:20:33.731Z,101733.16
2022-10-21T00:23:03.231Z,101731.44
2022-10-21T00:25:30.356Z,101738.59
2022-10-21T00:27:57.753Z,101734.00
2022-10-21T00:30:24.858Z,101740.22
2022-10-21T00:32:51.942Z,101744.94
2022-10-21T00:35:19.022Z,101744.94
2022-10-21T00:37:46.145Z,101737.72
2022-10-21T00:40:14.430Z,101740.13
2022-10-21T00:42:45.521Z,101749.72
2022-10-21T00:45:24.311Z,101753.91
2022-10-21T00:47:57.342Z,101756.47
2022-10-21T00:50:38.736Z,101760.75
2022-10-21T00:53:13.457Z,101753.16
2022-10-21T00:55:46.543Z,101743.50
2022-10-21T00:58:14.014Z,101753.66
2022-10-21T01:00:41.199Z,101741.75
2022-10-21T01:03:08.569Z,101747.41
2022-10-21T01:05:39.068Z,101729.47
2022-10-21T01:08:06.291Z,101738.69
2022-10-21T01:10:33.871Z,101732.41
2022-10-21T01:13:00.902Z,101729.66
2022-10-21T01:15:45.641Z,101730.50
2022-10-21T01:18:27.294Z,101731.53
2022-10-21T01:21:08.330Z,101732.75
2022-10-21T01:24:00.316Z,101735.81
2022-10-21T01:26:36.211Z,101745.34
2022-10-21T01:29:43.843Z,101746.22
2022-10-21T01:32:32.435Z,101737.88
2022-10-21T01:35:12.587Z,101739.25
2022-10-21T01:38:01.223Z,101727.00
2022-10-21T01:40:37.618Z,101721.16
2022-10-21T01:43:16.952Z,101720.56
2022-10-21T01:45:57.711Z,101715.44
2022-10-21T01:48:30.787Z,101701.38
2022-10-21T01:51:07.298Z,101715.50
2022-10-21T01:53:43.604Z,101714.66
2022-10-21T01:56:12.962Z,101716.50
2022-10-21T01:58:44.237Z,101705.84
2022-10-21T02:01:13.857Z,101709.84
2022-10-21T02:03:45.754Z,101695.59
2022-10-21T02:06:14.135Z,101701.56
2022-10-21T02:08:42.789Z,101691.06
2022-10-21T02:11:11.909Z,101701.19
2022-10-21T02:13:48.450Z,101704.63
2022-10-21T02:16:19.228Z,101703.00
2022-10-21T02:18:46.325Z,101703.59
2022-10-21T02:21:19.052Z,101706.50
2022-10-21T02:24:02.851Z,101708.41
2022-10-21T02:26:30.024Z,101697.59
2022-10-21T02:28:58.907Z,101697.50
2022-10-21T02:31:39.642Z,101691.25
2022-10-21T02:34:15.807Z,101686.81
2022-10-21T02:36:50.258Z,101683.28
2022-10-21T02:39:25.344Z,101677.72
2022-10-21T02:41:55.330Z,101685.94
2022-10-21T02:44:22.762Z,101687.66
2022-10-21T02:46:50.495Z,101684.75
2022-10-21T02:49:17.654Z,101683.53
2022-10-21T02:51:45.535Z,101685.84
2022-10-21T02:54:13.837Z,101689.03
2022-10-21T02:56:40.949Z,101689.66
2022-10-21T02:59:08.423Z,101685.97
2022-10-21T03:01:35.592Z,101683.78
2022-10-21T03:04:02.758Z,101684.19
2022-10-21T03:06:29.862Z,101690.97
2022-10-21T03:08:57.101Z,101671.44
2022-10-21T03:11:24.248Z,101675.34
2022-10-21T03:13:51.346Z,101684.88
2022-10-21T03:18:50.513Z,101693.69
2022-10-21T03:21:17.616Z,101685.53
2022-10-21T03:23:44.719Z,101685.19
2022-10-21T03:26:11.879Z,101685.19
2022-10-21T03:28:39.519Z,101680.56
2022-10-21T03:31:06.648Z,101671.53
2022-10-21T03:33:33.745Z,101673.81
2022-10-21T03:36:00.867Z,101682.28
2022-10-21T03:38:28.009Z,101668.69
2022-10-21T03:40:55.218Z,101672.34
2022-10-21T03:43:22.362Z,101669.38
2022-10-21T03:45:49.503Z,101666.34
2022-10-21T03:48:17.527Z,101675.22
2022-10-21T03:50:44.641Z,101664.94
2022-10-21T03:53:24.359Z,101664.81
2022-10-21T03:55:58.858Z,101672.47
2022-10-21T03:58:25.967Z,101679.88
2022-10-21T04:00:53.532Z,101679.06
2022-10-21T04:03:20.825Z,101677.91
2022-10-21T04:05:47.970Z,101673.72
2022-10-21T04:08:15.098Z,101673.72
2022-10-21T04:10:42.226Z,101670.88
2022-10-21T04:13:09.350Z,101667.16
2022-10-21T04:15:36.577Z,101666.31
2022-10-21T04:18:03.778Z,101664.59
2022-10-21T04:20:30.894Z,101662.47
2022-10-21T04:22:58.003Z,101668.91
2022-10-21T04:25:25.159Z,101670.53
2022-10-21T04:27:52.331Z,101663.41
2022-10-21T04:30:19.423Z,101668.53
2022-10-21T04:32:47.128Z,101670.19
2022-10-21T04:35:14.208Z,101664.94
2022-10-21T04:37:41.315Z,101668.41
2022-10-21T04:40:09.191Z,101664.88
2022-10-21T04:42:36.453Z,101674.66
2022-10-21T04:45:03.909Z,101674.84
2022-10-21T04:47:31.327Z,101673.97
2022-10-21T04:49:58.439Z,101677.13
2022-10-21T04:52:25.532Z,101676.63
2022-10-21T04:54:52.695Z,101672.00
2022-10-21T04:57:20.453Z,101663.66
2022-10-21T04:59:47.625Z,101661.84
2022-10-21T05:02:14.803Z,101648.84
2022-10-21T05:04:41.898Z,101643.03
2022-10-21T05:07:09.127Z,101648.25
2022-10-21T05:09:36.238Z,101653.09
2022-10-21T05:12:03.857Z,101643.44
2022-10-21T05:14:31.000Z,101645.16
2022-10-21T05:16:58.169Z,101646.69
2022-10-21T05:19:28.986Z,101644.88
2022-10-21T05:21:58.790Z,101644.38
2022-10-21T05:24:26.173Z,101648.03
2022-10-21T05:26:53.292Z,101647.91
2022-10-21T05:29:20.383Z,101651.06
2022-10-21T05:31:47.583Z,101651.78
2022-10-21T05:34:14.675Z,101655.31
2022-10-21T05:36:42.362Z,101638.59
2022-10-21T05:39:11.446Z,101642.78
2022-10-21T05:41:40.231Z,101641.94
2022-10-21T05:44:09.171Z,101639.63
2022-10-21T05:46:36.299Z,101648.75
2022-10-21T05:49:03.724Z,101644.94
2022-10-21T05:51:30.836Z,101639.84
2022-10-21T05:53:58.214Z,101640.78
2022-10-21T05:56:25.350Z,101630.88
2022-10-21T05:58:52.520Z,101655.31
2022-10-21T06:01:19.692Z,101658.66
2022-10-21T06:03:47.071Z,101660.28
2022-10-21T06:06:14.166Z,101662.66
2022-10-21T06:08:41.325Z,101648.41
2022-10-21T06:11:14.168Z,101648.22
2022-10-21T06:13:41.571Z,101655.09
2022-10-21T06:16:10.125Z,101660.53
2022-10-21T06:18:37.713Z,101657.38
2022-10-21T06:21:05.638Z,101646.53
2022-10-21T06:23:33.557Z,101646.84
2022-10-21T06:26:10.395Z,101645.88
2022-10-21T06:28:39.111Z,101650.34
2022-10-21T06:31:07.862Z,101654.25
2022-10-21T06:33:35.589Z,101637.91
2022-10-21T06:36:02.790Z,101638.56
2022-10-21T06:38:32.143Z,101646.34
2022-10-21T06:41:07.891Z,101646.06
2022-10-21T06:43:38.111Z,101647.59
2022-10-21T06:46:08.964Z,101641.78
2022-10-21T06:48:36.263Z,101651.47
2022-10-21T06:51:07.395Z,101655.94
2022-10-21T06:53:38.951Z,101648.34
2022-10-21T06:56:10.036Z,101649.88
2022-10-21T06:58:39.768Z,101653.00
2022-10-21T07:01:16.661Z,101662.59
2022-10-21T07:03:55.334Z,101662.69
2022-10-21T07:06:22.727Z,101670.88
2022-10-21T07:08:57.933Z,101685.25
2022-10-21T07:11:27.580Z,101660.97
2022-10-21T07:13:54.877Z,101664.00
2022-10-21T07:16:31.344Z,101652.94
2022-10-21T07:18:58.587Z,101645.44
2022-10-21T07:21:27.557Z,101655.06
2022-10-21T07:23:57.914Z,101656.94
2022-10-21T07:26:29.033Z,101654.28
2022-10-21T07:28:58.263Z,101647.69
2022-10-21T07:31:26.721Z,101642.59
2022-10-21T07:33:54.221Z,101650.31
2022-10-21T07:36:24.401Z,101657.97
2022-10-21T07:38:53.857Z,101663.44
2022-10-21T07:41:45.787Z,101662.06
2022-10-21T07:44:14.071Z,101670.53
2022-10-21T07:46:43.058Z,101662.16
2022-10-21T07:49:11.695Z,101643.75
2022-10-21T07:51:40.002Z,101661.75
2022-10-21T07:54:07.814Z,101666.16
2022-10-21T07:56:38.478Z,101656.25
2022-10-21T07:59:10.192Z,101655.81
2022-10-21T08:01:44.321Z,101651.03
2022-10-21T08:04:15.399Z,101641.97
2022-10-21T08:06:44.039Z,101643.47
2022-10-21T08:09:11.732Z,101649.88
2022-10-21T08:11:38.998Z,101636.41
2022-10-21T08:14:08.672Z,101628.09
2022-10-21T08:16:36.467Z,101619.66
2022-10-21T08:19:04.649Z,101611.00
2022-10-21T08:21:31.821Z,101607.59
2022-10-21T08:24:02.261Z,101624.44
2022-10-21T08:26:29.657Z,101617.59
2022-10-21T08:31:28.764Z,101610.56
2022-10-21T08:33:55.942Z,101609.16
2022-10-21T08:36:25.885Z,101609.88
2022-10-21T08:38:54.043Z,101618.66
2022-10-21T08:41:31.204Z,101628.06
2022-10-21T08:44:16.659Z,101623.13
2022-10-21T08:47:24.905Z,101641.34
2022-10-21T08:50:00.520Z,101632.34
2022-10-21T08:52:49.606Z,101645.44
2022-10-21T08:55:34.227Z,101649.41
2022-10-21T08:58:02.289Z,101658.97
2022-10-21T09:01:05.711Z,101650.56
2022-10-21T09:03:54.325Z,101657.28
2022-10-21T09:06:44.543Z,101664.09
2022-10-21T09:09:24.252Z,101646.75
2022-10-21T09:12:06.030Z,101650.34
2022-10-21T09:14:50.201Z,101651.03
2022-10-21T09:17:46.941Z,101642.41
2022-10-21T09:20:45.012Z,101646.03
2022-10-21T09:23:14.766Z,101643.06
2022-10-21T09:26:01.946Z,101649.16
2022-10-21T09:28:30.515Z,101651.19
2022-10-21T09:31:00.857Z,101645.72
2022-10-21T09:33:31.893Z,101641.13
2022-10-21T09:36:04.650Z,101649.91
2022-10-21T09:38:57.907Z,101645.78
2022-10-21T09:41:33.039Z,101654.19
2022-10-21T09:44:00.136Z,101648.97
2022-10-21T09:46:27.437Z,101648.63
2022-10-21T09:51:45.359Z,101646.34
2022-10-21T09:54:19.870Z,101650.84
2022-10-21T09:56:57.049Z,101647.59
2022-10-21T09:59:29.107Z,101652.09
2022-10-21T10:02:07.675Z,101643.47
2022-10-21T10:04:35.962Z,101649.69
2022-10-21T10:07:28.085Z,101657.38
2022-10-21T10:09:55.219Z,101652.25
2022-10-21T10:12:25.346Z,101661.72
2022-10-21T10:14:52.805Z,101652.94
2022-10-21T10:17:31.903Z,101649.22
2022-10-21T10:20:04.895Z,101646.88
2022-10-21T10:22:32.948Z,101644.53
2022-10-21T10:25:12.030Z,101651.88
2022-10-21T10:27:48.206Z,101647.00
2022-10-21T10:30:16.892Z,101647.09
2022-10-21T10:32:46.350Z,101656.03
2022-10-21T10:35:33.973Z,101650.03
2022-10-21T10:38:02.738Z,101642.22
2022-10-21T10:40:39.570Z,101632.50
2022-10-21T10:43:32.004Z,101624.00
2022-10-21T10:46:02.035Z,101626.56
2022-10-21T10:48:35.076Z,101604.19
2022-10-21T10:51:07.076Z,101596.53
2022-10-21T10:53:35.700Z,101589.31
2022-10-21T10:56:24.491Z,101586.91
2022-10-21T10:59:17.062Z,101576.91
2022-10-21T11:02:02.535Z,101562.06
2022-10-21T11:04:56.622Z,101556.22
2022-10-21T11:07:45.159Z,101569.25
2022-10-21T11:10:35.975Z,101585.44
2022-10-21T11:13:11.150Z,101583.63
2022-10-21T11:15:44.687Z,101574.63
2022-10-21T11:18:27.586Z,101574.88
2022-10-21T11:20:59.779Z,101566.84
2022-10-21T11:23:29.623Z,101567.09
2022-10-21T11:26:21.431Z,101580.56
2022-10-21T11:29:01.378Z,101581.81
2022-10-21T11:32:13.548Z,101570.13
2022-10-21T11:35:05.192Z,101585.34
2022-10-21T11:37:53.642Z,101592.63
2022-10-21T11:40:37.494Z,101606.88
2022-10-21T11:43:16.582Z,101602.72
2022-10-21T11:45:58.297Z,101601.78
2022-10-21T11:48:31.151Z,101600.56
2022-10-21T11:51:16.468Z,101600.31
2022-10-21T11:54:01.946Z,101599.09
2022-10-21T11:56:50.570Z,101610.03
2022-10-21T11:59:36.186Z,101608.84
2022-10-21T12:02:33.331Z,101601.03
2022-10-21T12:05:18.703Z,101607.75
2022-10-21T12:07:51.842Z,101585.22
2022-10-21T12:10:34.131Z,101606.41
2022-10-21T12:13:13.528Z,101610.03
2022-10-21T12:15:50.152Z,101624.78
2022-10-21T12:18:20.558Z,101611.66
2022-10-21T12:20:50.159Z,101617.09
2022-10-21T12:23:22.054Z,101606.16
2022-10-21T12:25:49.090Z,101606.16
2022-10-21T12:28:35.685Z,101596.16
2022-10-21T12:31:28.865Z,101602.13
2022-10-21T12:33:56.948Z,101605.19
2022-10-21T12:36:24.093Z,101593.88
2022-10-21T12:38:56.463Z,101590.09
2022-10-21T12:41:23.488Z,101582.19
2022-10-21T12:44:02.972Z,101593.63
2022-10-21T12:46:40.323Z,101621.00
2022-10-21T12:49:10.573Z,101612.50
2022-10-21T12:51:39.188Z,101615.19
2022-10-21T12:54:13.423Z,101614.91
2022-10-21T12:56:47.702Z,101617.72
2022-10-21T12:59:28.438Z,101607.75
2022-10-21T13:02:04.625Z,101606.38
2022-10-21T13:04:31.709Z,101592.16
2022-10-21T13:07:19.349Z,101581.94
2022-10-21T13:09:50.745Z,101583.78
2022-10-21T13:12:29.252Z,101585.69
2022-10-21T13:15:22.186Z,101599.81
2022-10-21T13:17:55.094Z,101587.28
2022-10-21T13:20:22.187Z,101593.72
2022-10-21T13:23:03.436Z,101582.66
2022-10-21T13:25:35.222Z,101590.31
2022-10-21T13:28:14.003Z,101593.97
2022-10-21T13:30:58.526Z,101600.03
2022-10-21T13:33:29.709Z,101601.00
2022-10-21T13:36:24.970Z,101607.47
2022-10-21T13:38:55.382Z,101604.53
2022-10-21T13:41:27.118Z,101602.56
2022-10-21T13:44:06.331Z,101603.44
2022-10-21T13:46:43.603Z,101597.22
2022-10-21T13:49:32.934Z,101599.34
2022-10-21T13:52:00.042Z,101602.78
2022-10-21T13:54:34.863Z,101601.72
2022-10-21T13:57:08.351Z,101587.50
2022-10-21T13:59:35.338Z,101597.19
2022-10-21T14:02:03.816Z,101598.25
2022-10-21T14:04:33.490Z,101601.06
2022-10-21T14:07:04.686Z,101602.91
2022-10-21T14:09:45.265Z,101601.19
2022-10-21T14:12:21.854Z,101592.06
2022-10-21T14:14:51.690Z,101592.72
2022-10-21T14:17:22.490Z,101599.88
2022-10-21T14:20:05.481Z,101589.06
2022-10-21T14:22:33.229Z,101586.91
2022-10-21T14:25:04.484Z,101589.44
2022-10-21T14:27:34.153Z,101595.88
2022-10-21T14:30:04.253Z,101604.59
2022-10-21T14:32:32.078Z,101600.88
2022-10-21T14:35:11.283Z,101592.47
2022-10-21T14:37:48.548Z,101597.41
2022-10-21T14:40:26.189Z,101612.41
2022-10-21T14:42:55.083Z,101602.78
2022-10-21T14:45:34.762Z,101596.59
2022-10-21T14:48:11.694Z,101598.50
2022-10-21T14:50:41.407Z,101607.84
2022-10-21T14:53:19.182Z,101602.16
2022-10-21T14:55:48.574Z,101599.91
2022-10-21T14:58:22.876Z,101581.69
2022-10-21T15:01:07.121Z,101577.28
2022-10-21T15:03:38.580Z,101593.25
2022-10-21T15:06:17.855Z,101589.81
2022-10-21T15:09:10.748Z,101586.78
2022-10-21T15:11:42.356Z,101591.38
2022-10-21T15:14:12.246Z,101581.25
2022-10-21T15:16:53.579Z,101578.94
2022-10-21T15:19:25.223Z,101569.22
2022-10-21T15:22:01.557Z,101570.19
2022-10-21T15:24:34.067Z,101564.22
2022-10-21T15:27:02.290Z,101565.31
2022-10-21T15:29:36.070Z,101551.94
2022-10-21T15:32:05.845Z,101542.44
2022-10-21T15:34:33.028Z,101547.25
2022-10-21T15:37:00.512Z,101551.75
2022-10-21T15:39:28.748Z,101546.66
2022-10-21T15:41:57.506Z,101553.09
2022-10-21T15:44:28.023Z,101544.66
2022-10-21T15:47:00.262Z,101539.44
2022-10-21T15:49:32.375Z,101545.22
2022-10-21T15:52:00.210Z,101546.44
2022-10-21T15:54:27.302Z,101536.50
2022-10-21T15:56:55.278Z,101535.00
2022-10-21T15:59:24.484Z,101536.06
2022-10-21T16:01:52.500Z,101541.41
2022-10-21T16:04:20.587Z,101537.91
2022-10-21T16:06:49.555Z,101535.44
2022-10-21T16:09:25.919Z,101521.47
2022-10-21T16:11:59.223Z,101523.28
2022-10-21T16:14:29.395Z,101537.22
2022-10-21T16:17:00.648Z,101528.25
2022-10-21T16:19:28.847Z,101535.75
2022-10-21T16:21:56.649Z,101535.00
2022-10-21T16:24:23.770Z,101529.53
2022-10-21T16:26:51.076Z,101549.19
2022-10-21T16:29:24.248Z,101550.16
2022-10-21T16:31:52.045Z,101556.66
2022-10-21T16:34:19.590Z,101562.88
2022-10-21T16:36:46.769Z,101552.19
2022-10-21T16:39:16.805Z,101557.97
2022-10-21T16:41:43.935Z,101561.50
2022-10-21T16:44:11.185Z,101559.88
2022-10-21T16:46:56.494Z,101554.34
2022-10-21T16:49:27.891Z,101551.03
2022-10-21T16:51:57.381Z,101543.03
2022-10-21T16:54:24.546Z,101541.19
2022-10-21T16:56:54.878Z,101540.56
2022-10-21T16:59:23.579Z,101546.41
2022-10-21T17:01:51.527Z,101548.47
2022-10-21T17:04:18.776Z,101546.97
2022-10-21T17:06:45.887Z,101547.63
2022-10-21T17:09:13.185Z,101561.72
2022-10-21T17:11:42.246Z,101548.94
2022-10-21T17:14:16.229Z,101540.16
2022-10-21T17:16:45.299Z,101536.84
2022-10-21T17:19:14.520Z,101540.59
2022-10-21T17:21:41.763Z,101552.69
2022-10-21T17:24:13.796Z,101552.25
2022-10-21T17:26:41.404Z,101557.38
2022-10-21T17:29:10.762Z,101558.22
2022-10-21T17:31:40.834Z,101552.03
2022-10-21T17:34:24.450Z,101546.19
2022-10-21T17:36:51.704Z,101550.88
2022-10-21T17:39:18.811Z,101551.06
2022-10-21T17:44:18.413Z,101560.81
2022-10-21T17:46:47.571Z,101562.63
2022-10-21T17:49:15.148Z,101554.50
2022-10-21T17:51:42.282Z,101558.38
2022-10-21T17:54:10.141Z,101563.81
2022-10-21T17:56:37.278Z,101560.16
2022-10-21T17:59:04.503Z,101558.00
2022-10-21T18:01:31.780Z,101555.97
2022-10-21T18:04:02.022Z,101559.66
2022-10-21T18:06:29.278Z,101558.66
2022-10-21T18:08:58.127Z,101554.31
2022-10-21T18:11:25.760Z,101536.44
2022-10-21T18:13:55.238Z,101544.47
2022-10-21T18:16:24.322Z,101540.94
2022-10-21T18:18:55.227Z,101524.81
2022-10-21T18:21:24.648Z,101512.19
2022-10-21T18:23:53.453Z,101514.78
2022-10-21T18:26:31.301Z,101510.03
2022-10-21T18:29:03.018Z,101494.75
2022-10-21T18:31:34.408Z,101499.03
2022-10-21T18:34:03.939Z,101493.56
2022-10-21T18:36:32.076Z,101483.88
2022-10-21T18:39:01.150Z,101483.50
2022-10-21T18:41:28.463Z,101475.75
2022-10-21T18:44:01.207Z,101470.53
2022-10-21T18:46:29.799Z,101468.44
2022-10-21T18:48:57.795Z,101471.63
2022-10-21T18:51:25.301Z,101477.41
2022-10-21T18:53:53.378Z,101489.38
2022-10-21T18:56:22.234Z,101487.66
2022-10-21T18:58:50.078Z,101493.19
2022-10-21T19:01:18.553Z,101498.66
2022-10-21T19:03:45.954Z,101504.81
2022-10-21T19:06:32.142Z,101519.16
2022-10-21T19:09:01.156Z,101525.91
2022-10-21T19:11:28.974Z,101519.34
2022-10-21T19:13:56.331Z,101505.41
2022-10-21T19:16:23.583Z,101505.53
2022-10-21T19:18:51.274Z,101498.53
2022-10-21T19:21:19.782Z,101502.22
2022-10-21T19:23:47.029Z,101501.22
2022-10-21T19:26:14.934Z,101501.84
2022-10-21T19:28:42.193Z,101497.25
2022-10-21T19:31:11.483Z,101502.59
2022-10-21T19:33:39.214Z,101514.03
2022-10-21T19:36:08.103Z,101515.72
2022-10-21T19:38:50.804Z,101519.13
2022-10-21T19:41:22.483Z,101519.97
2022-10-21T19:43:53.126Z,101532.88
2022-10-21T19:46:24.912Z,101534.09
2022-10-21T19:48:53.654Z,101516.47
2022-10-21T19:51:23.134Z,101511.25
2022-10-21T19:53:51.245Z,101515.00
2022-10-21T19:56:22.199Z,101517.88
2022-10-21T19:58:54.698Z,101524.19
2022-10-21T20:01:24.964Z,101522.25
2022-10-21T20:03:53.398Z,101522.38
2022-10-21T20:06:25.226Z,101522.84
2022-10-21T20:08:58.107Z,101532.06
2022-10-21T20:11:25.750Z,101521.56
2022-10-21T20:13:52.927Z,101526.41
2022-10-21T20:16:21.825Z,101537.34
2022-10-21T20:18:49.584Z,101550.84
2022-10-21T20:21:16.867Z,101553.75
2022-10-21T20:23:44.053Z,101556.03
2022-10-21T20:26:11.470Z,101559.97
2022-10-21T20:28:38.867Z,101559.13
2022-10-21T20:31:09.150Z,101568.84
2022-10-21T20:33:40.344Z,101552.63
2022-10-21T20:36:17.867Z,101560.75
2022-10-21T20:38:46.099Z,101561.78
2022-10-21T20:41:23.568Z,101561.91
2022-10-21T20:43:51.864Z,101562.09
2022-10-21T20:46:21.814Z,101550.47
2022-10-21T20:48:50.488Z,101549.81
2022-10-21T20:51:27.026Z,101549.25
2022-10-21T20:53:57.313Z,101547.34
2022-10-21T20:56:33.876Z,101549.06
2022-10-21T20:59:01.638Z,101542.63
2022-10-21T21:01:34.808Z,101552.97
2022-10-21T21:04:08.361Z,101558.34
2022-10-21T21:06:37.378Z,101545.56
2022-10-21T21:11:51.934Z,101549.50
2022-10-21T21:14:19.127Z,101547.78
2022-10-21T21:16:46.277Z,101538.94
2022-10-21T21:19:14.349Z,101534.22
2022-10-21T21:21:41.662Z,101531.63
2022-10-21T21:24:08.865Z,101528.97
2022-10-21T21:26:38.458Z,101530.09
2022-10-21T21:29:07.529Z,101519.91
2022-10-21T21:31:37.090Z,101523.84
2022-10-21T21:34:05.378Z,101521.47
2022-10-21T21:36:32.800Z,101522.59
2022-10-21T21:39:00.095Z,101526.63
2022-10-21T21:41:27.298Z,101518.97
2022-10-21T21:43:56.555Z,101526.66
2022-10-21T21:46:24.971Z,101522.44
2022-10-21T21:48:59.571Z,101520.63
2022-10-21T21:51:29.362Z,101527.47
2022-10-21T21:53:57.218Z,101528.06
2022-10-21T21:56:25.362Z,101515.91
2022-10-21T21:58:54.971Z,101515.44
2022-10-21T22:01:25.398Z,101511.34
2022-10-21T22:03:53.207Z,101503.66
2022-10-21T22:06:22.768Z,101502.56
2022-10-21T22:08:51.016Z,101492.97
2022-10-21T22:11:22.455Z,101495.28
2022-10-21T22:13:49.936Z,101490.28
2022-10-21T22:16:18.678Z,101490.03
2022-10-21T22:18:45.838Z,101480.03
2022-10-21T22:21:16.560Z,101475.31
2022-10-21T22:23:45.196Z,101476.66
2022-10-21T22:26:13.611Z,101473.69
2022-10-21T22:28:41.450Z,101466.13
2022-10-21T22:31:12.040Z,101457.94
2022-10-21T22:33:40.213Z,101460.25
2022-10-21T22:36:08.082Z,101465.72
2022-10-21T22:38:35.194Z,101472.19
2022-10-21T22:41:06.123Z,101473.03
2022-10-21T22:43:35.654Z,101480.41
2022-10-21T22:46:09.706Z,101476.78
2022-10-21T22:48:49.023Z,101482.41
2022-10-21T22:51:16.142Z,101471.69
2022-10-21T22:53:43.271Z,101469.09
2022-10-21T22:56:10.436Z,101456.69
2022-10-21T22:58:37.622Z,101453.63
2022-10-21T23:01:09.678Z,101448.53
2022-10-21T23:03:37.031Z,101448.25
2022-10-21T23:06:04.459Z,101441.19
2022-10-21T23:08:31.795Z,101442.31
2022-10-21T23:10:58.979Z,101448.78
2022-10-21T23:13:26.214Z,101443.06
2022-10-21T23:15:53.322Z,101443.81
2022-10-21T23:18:20.522Z,101438.91
2022-10-21T23:20:47.697Z,101435.50
2022-10-21T23:23:14.830Z,101430.41
2022-10-21T23:25:41.937Z,101430.25
2022-10-21T23:28:09.725Z,101426.50
2022-10-21T23:30:38.273Z,101412.50
2022-10-21T23:33:05.386Z,101402.50
2022-10-21T23:35:32.867Z,101423.47
2022-10-21T23:38:00.138Z,101420.91
2022-10-21T23:40:28.185Z,101432.50
2022-10-21T23:42:55.294Z,101432.63
2022-10-21T23:45:22.540Z,101429.59
2022-10-21T23:47:49.927Z,101435.69
2022-10-21T23:50:17.157Z,101423.59
2022-10-21T23:52:44.385Z,101414.84
2022-10-21T23:55:11.498Z,101407.03
2022-10-21T23:57:39.288Z,101408.75
